Aérodrome :
LOGIN :

S'inscrire | Disclaimer

   EN    FR    IT 

 










Légende :    VFR   VFR Marginal   IFR   IFR Intensif   IFR Très Intensif
Visi : 
Plafond : 
>= 8 km
>= 3000ft
5 à 8 km
1000 à 3000 ft
1500m à 5 km
500 à 1000 ft
800 à 1500m
200 à 500 ft
< 800m
< 200 ft
Symboles :   Orages  Brouillard  Fortes neiges  Fortes précipitations  Vent > 20 kt
SIGMETs :   Divers  Orages  Givrage  Turbulence  Onde Orograph.  Cendres Volcan.







- Altitude de l'aérodrome : 433 ft
- Code IATA : CCF
- Voir les cartes d'approche


LFMK - Carcassonne

DERNIER METAR :
  • 202200Z AUTO 28009KT 9999 BKN029 20/17 Q1015

METARs EXPIRÉS :
  • 202130Z AUTO 27011KT 250V310 9999 SCT030 BKN068 20/17 Q1015
  • 202100Z AUTO 27010KT 9999 FEW039 OVC066 20/17 Q1015
  • 202030Z AUTO 27008KT 9999 FEW040 BKN064 OVC088 20/17 Q1015
  • 202000Z AUTO 28010KT 9999 FEW035 BKN062 OVC082 20/17 Q1015
  • 201930Z AUTO 27009KT 9999 SCT028 BKN035 OVC064 21/17 Q1015

TAF TAF LFMK
Valide du 20 à 15h jusqu'au 21 à 15h UTC


201400Z 2015/2115 28010KT 9999 BKN013 BKN070
PROB30
TEMPO 2015/2019 28015G25KT SCT015 SCT035TCU SCT070
BECMG 2019/2021 CAVOK
TEMPO 2107/2111 VRB02KT SCT015 BKN060TCU
Pas de NOTAMs connus pour ce terrain.



MET'MAP, la Météo Aéronautique d'un coup d'oeil ! - Copyright ORBIFLY Décembre 2007 - Disclaimer

ORBIFLY MET'MAP TEAM :

Programmation & Développement : Alexandra Zaïnal
Conception & Développement : Baudouin d'Aumeries
Co-Programmation & Développement : Marc-Olivier Méhu
Soutien technique & logistique : Manuel Goepfert

Contact : metmap@orbifly.com




SOURCES & CREDITS :

   NOAA